Time;durP1;ratioP1;P1;durP2;ratioP2;P2;SDS_P1;SDS_P2;PMS_P1;PMS_P2;Temp;Humidity;BMP_temperature;BMP_pressure;BME280_temperature;BME280_humidity;BME280_pressure;Samples;Min_cycle;Max_cycle;Signal;HPM_P1;HPM_P2
2023/08/16 00:00:49;;;;;;;14.47;10.77;;;;;;;;;;5007823;28;20264;-54
2023/08/16 00:03:14;;;;;;;14.53;10.57;;;;;;;;;;5025427;28;20252;-54
2023/08/16 00:05:41;;;;;;;13.57;10.27;;;;;;;;;;5025599;28;20725;-55
2023/08/16 00:08:06;;;;;;;14.30;10.48;;;;;;;;;;5025422;28;20032;-56
2023/08/16 00:10:32;;;;;;;15.00;10.63;;;;;;;;;;5024911;28;20423;-54
2023/08/16 00:12:57;;;;;;;13.98;10.80;;;;;;;;;;5024711;28;20553;-54
2023/08/16 00:15:22;;;;;;;13.33;10.17;;;;;;;;;;5023872;28;20739;-56
2023/08/16 00:17:48;;;;;;;13.33;10.27;;;;;;;;;;5025072;28;20323;-55
2023/08/16 00:20:13;;;;;;;14.13;11.13;;;;;;;;;;5025153;28;20033;-55
2023/08/16 00:22:38;;;;;;;13.37;10.53;;;;;;;;;;5025073;28;20029;-53
2023/08/16 00:25:03;;;;;;;12.73;10.27;;;;;;;;;;5025092;28;20325;-54
2023/08/16 00:27:29;;;;;;;13.18;10.32;;;;;;;;;;5025134;28;20270;-54
2023/08/16 00:29:54;;;;;;;13.87;10.17;;;;;;;;;;5034522;28;20198;-53
2023/08/16 00:32:19;;;;;;;13.10;10.83;;;;;;;;;;5026470;28;20334;-54
2023/08/16 00:34:44;;;;;;;15.07;9.90;;;;;;;;;;5024910;28;20021;-54
2023/08/16 00:37:10;;;;;;;13.57;10.47;;;;;;;;;;5025010;28;20757;-54
2023/08/16 00:39:35;;;;;;;18.17;10.80;;;;;;;;;;5030639;28;20712;-54
2023/08/16 00:42:00;;;;;;;14.23;10.70;;;;;;;;;;5012323;28;20502;-54
2023/08/16 00:44:25;;;;;;;12.43;10.53;;;;;;;;;;5025189;28;20128;-54
2023/08/16 00:46:51;;;;;;;15.93;10.90;;;;;;;;;;5025813;28;20276;-55
2023/08/16 00:49:16;;;;;;;13.57;10.30;;;;;;;;;;5006784;28;20033;-55
2023/08/16 00:51:41;;;;;;;13.20;11.30;;;;;;;;;;5024201;28;20456;-54
2023/08/16 00:54:06;;;;;;;13.17;11.27;;;;;;;;;;5021144;28;20129;-55
2023/08/16 00:56:32;;;;;;;15.10;11.00;;;;;;;;;;5003409;28;20128;-54
2023/08/16 00:58:57;;;;;;;13.73;10.68;;;;;;;;;;4987114;28;20121;-53
2023/08/16 01:01:22;;;;;;;12.83;10.43;;;;;;;;;;4999714;28;20034;-54
2023/08/16 01:03:48;;;;;;;13.17;10.77;;;;;;;;;;5004458;28;20277;-55
2023/08/16 01:06:13;;;;;;;16.00;11.20;;;;;;;;;;5004257;28;20612;-55
2023/08/16 01:08:38;;;;;;;11.45;9.98;;;;;;;;;;5004231;28;20041;-55
2023/08/16 01:11:07;;;;;;;13.77;10.97;;;;;;;;;;5000372;28;20041;-55
2023/08/16 01:13:38;;;;;;;13.82;11.55;;;;;;;;;;4987175;28;20746;-55
2023/08/16 01:16:07;;;;;;;15.48;11.25;;;;;;;;;;5004524;28;20111;-55
2023/08/16 01:18:32;;;;;;;12.95;10.20;;;;;;;;;;5003633;28;20062;-54
2023/08/16 01:20:58;;;;;;;14.13;10.77;;;;;;;;;;5004180;28;20041;-55
2023/08/16 01:23:35;;;;;;;12.73;9.70;;;;;;;;;;4986729;28;20121;-54
2023/08/16 01:26:03;;;;;;;14.77;10.07;;;;;;;;;;5004482;28;20045;-55
2023/08/16 01:28:28;;;;;;;14.63;11.48;;;;;;;;;;5004111;28;20549;-53
2023/08/16 01:31:01;;;;;;;13.13;10.63;;;;;;;;;;5004411;28;20038;-54
2023/08/16 01:33:27;;;;;;;13.73;10.70;;;;;;;;;;5003924;28;20512;-54
2023/08/16 01:35:52;;;;;;;14.23;10.60;;;;;;;;;;5002807;28;20040;-54
2023/08/16 01:38:17;;;;;;;11.90;10.57;;;;;;;;;;5003977;28;20431;-54
2023/08/16 01:40:58;;;;;;;12.70;10.47;;;;;;;;;;4994603;28;20350;-54
2023/08/16 01:43:23;;;;;;;13.57;11.30;;;;;;;;;;5005964;28;20445;-54
2023/08/16 01:45:48;;;;;;;13.77;11.40;;;;;;;;;;5006046;28;20116;-55
2023/08/16 01:48:14;;;;;;;12.77;10.70;;;;;;;;;;5006008;28;20268;-54
2023/08/16 01:50:40;;;;;;;12.70;11.30;;;;;;;;;;5022083;28;20282;-55
2023/08/16 01:53:05;;;;;;;14.10;10.98;;;;;;;;;;5027538;28;20049;-56
2023/08/16 01:55:30;;;;;;;12.33;10.37;;;;;;;;;;5007349;28;20179;-55
2023/08/16 01:57:55;;;;;;;12.00;10.67;;;;;;;;;;5003221;28;20121;-55
2023/08/16 02:00:21;;;;;;;14.23;11.50;;;;;;;;;;5016216;28;20126;-55
2023/08/16 02:02:46;;;;;;;16.00;11.07;;;;;;;;;;4994189;28;20117;-54
2023/08/16 02:05:11;;;;;;;13.52;10.68;;;;;;;;;;4999226;28;20288;-55
2023/08/16 02:07:36;;;;;;;14.67;10.97;;;;;;;;;;5017180;28;20022;-54
2023/08/16 02:10:02;;;;;;;17.37;11.80;;;;;;;;;;5003376;28;20655;-55
2023/08/16 02:12:27;;;;;;;12.52;11.23;;;;;;;;;;5004199;28;20565;-55
2023/08/16 02:14:52;;;;;;;16.00;10.97;;;;;;;;;;5004695;28;20034;-55
2023/08/16 02:17:17;;;;;;;12.53;11.00;;;;;;;;;;5003393;28;20069;-54
2023/08/16 02:19:42;;;;;;;13.17;11.10;;;;;;;;;;4988473;28;20296;-54
2023/08/16 02:22:08;;;;;;;14.57;11.80;;;;;;;;;;5004626;28;20285;-54
2023/08/16 02:24:33;;;;;;;14.03;11.47;;;;;;;;;;5004963;28;20364;-54
2023/08/16 02:26:58;;;;;;;14.20;11.45;;;;;;;;;;5007123;28;20674;-54
2023/08/16 02:29:24;;;;;;;13.77;11.55;;;;;;;;;;5004947;28;20042;-54
2023/08/16 02:31:49;;;;;;;13.10;10.93;;;;;;;;;;5002328;28;20499;-53
2023/08/16 02:34:14;;;;;;;15.73;11.40;;;;;;;;;;5003117;28;20519;-54
2023/08/16 02:36:39;;;;;;;14.70;11.43;;;;;;;;;;5003250;28;20346;-58
2023/08/16 02:39:06;;;;;;;14.23;11.50;;;;;;;;;;5002821;28;20303;-54
2023/08/16 02:41:31;;;;;;;18.00;11.30;;;;;;;;;;5003148;28;20112;-54
2023/08/16 02:43:56;;;;;;;14.80;11.70;;;;;;;;;;5003556;28;20531;-53
2023/08/16 02:46:22;;;;;;;15.30;11.67;;;;;;;;;;5003287;28;20635;-54
2023/08/16 02:48:47;;;;;;;12.95;10.90;;;;;;;;;;5002701;28;20597;-54
2023/08/16 02:51:12;;;;;;;15.37;10.57;;;;;;;;;;5003103;28;20062;-55
2023/08/16 02:53:38;;;;;;;16.30;11.23;;;;;;;;;;5002338;28;20038;-54
2023/08/16 02:56:03;;;;;;;12.80;10.50;;;;;;;;;;4983882;28;20046;-54
2023/08/16 02:58:28;;;;;;;12.73;10.77;;;;;;;;;;4991343;28;20305;-54
2023/08/16 03:00:54;;;;;;;12.77;10.13;;;;;;;;;;5008661;28;20037;-54
2023/08/16 03:03:19;;;;;;;12.83;10.40;;;;;;;;;;5003422;28;20288;-54
2023/08/16 03:05:44;;;;;;;12.27;10.10;;;;;;;;;;5003498;28;21154;-54
2023/08/16 03:08:09;;;;;;;15.15;11.15;;;;;;;;;;5003050;28;20814;-55
2023/08/16 03:10:35;;;;;;;12.27;9.73;;;;;;;;;;5007182;28;20038;-55
2023/08/16 03:13:00;;;;;;;12.33;10.50;;;;;;;;;;5003036;28;20305;-55
2023/08/16 03:15:25;;;;;;;14.85;10.18;;;;;;;;;;5003067;28;20652;-55
2023/08/16 03:17:50;;;;;;;15.57;11.35;;;;;;;;;;5002725;28;20044;-56
2023/08/16 03:20:16;;;;;;;14.40;10.47;;;;;;;;;;5003042;28;20496;-56
2023/08/16 03:22:41;;;;;;;12.45;11.15;;;;;;;;;;5001669;28;20785;-55
2023/08/16 03:25:06;;;;;;;13.67;11.80;;;;;;;;;;4985558;28;20121;-55
2023/08/16 03:27:33;;;;;;;14.13;11.20;;;;;;;;;;5004108;28;20281;-55
2023/08/16 03:29:58;;;;;;;15.83;11.97;;;;;;;;;;5017683;28;20029;-56
2023/08/16 03:32:23;;;;;;;13.40;11.50;;;;;;;;;;5006467;28;20289;-55
2023/08/16 03:34:49;;;;;;;14.83;11.40;;;;;;;;;;5010657;28;20293;-56
2023/08/16 03:37:14;;;;;;;13.95;11.32;;;;;;;;;;5006338;28;20365;-55
2023/08/16 03:39:39;;;;;;;13.97;10.83;;;;;;;;;;5006218;28;20864;-55
2023/08/16 03:42:04;;;;;;;13.73;10.70;;;;;;;;;;5006321;28;20667;-55
2023/08/16 03:44:30;;;;;;;14.00;11.98;;;;;;;;;;5006056;28;20514;-55
2023/08/16 03:46:56;;;;;;;15.07;11.73;;;;;;;;;;5006412;28;20069;-56
2023/08/16 03:49:22;;;;;;;17.00;12.07;;;;;;;;;;5005799;28;20272;-55
2023/08/16 03:51:47;;;;;;;13.90;11.47;;;;;;;;;;5006294;28;20060;-55
2023/08/16 03:54:12;;;;;;;15.05;12.05;;;;;;;;;;5005345;28;20321;-55
2023/08/16 03:56:37;;;;;;;15.73;11.50;;;;;;;;;;5006171;28;20034;-55
2023/08/16 03:59:03;;;;;;;14.17;11.43;;;;;;;;;;5015594;28;20284;-55
2023/08/16 04:01:28;;;;;;;12.87;10.60;;;;;;;;;;5010483;28;20335;-55
2023/08/16 04:03:53;;;;;;;14.40;11.18;;;;;;;;;;5005502;28;20287;-55
2023/08/16 04:06:20;;;;;;;14.67;11.63;;;;;;;;;;5000794;28;20104;-55
2023/08/16 04:08:45;;;;;;;14.55;10.68;;;;;;;;;;5012275;28;20276;-54
2023/08/16 04:11:11;;;;;;;16.10;10.70;;;;;;;;;;4988081;28;20099;-54
2023/08/16 04:13:37;;;;;;;13.98;10.90;;;;;;;;;;5005947;28;20283;-54
2023/08/16 04:16:02;;;;;;;13.73;11.00;;;;;;;;;;5020088;28;20062;-55
2023/08/16 04:18:27;;;;;;;14.07;11.47;;;;;;;;;;5025152;28;20092;-54
2023/08/16 04:20:52;;;;;;;14.02;10.95;;;;;;;;;;5005885;28;20273;-55
2023/08/16 04:23:18;;;;;;;15.00;11.80;;;;;;;;;;5005607;28;20536;-54
2023/08/16 04:25:43;;;;;;;16.42;11.48;;;;;;;;;;5016887;28;20299;-55
2023/08/16 04:28:08;;;;;;;14.97;11.97;;;;;;;;;;5025580;28;20041;-54
2023/08/16 04:30:34;;;;;;;15.03;11.87;;;;;;;;;;5010016;28;20303;-54
2023/08/16 04:32:59;;;;;;;15.95;11.77;;;;;;;;;;5011563;28;20323;-54
2023/08/16 04:35:24;;;;;;;13.73;11.23;;;;;;;;;;5015641;28;20146;-55
2023/08/16 04:37:49;;;;;;;15.80;11.88;;;;;;;;;;5013809;28;20402;-55
2023/08/16 04:40:15;;;;;;;17.07;11.90;;;;;;;;;;5004207;28;20041;-55
2023/08/16 04:42:40;;;;;;;14.37;11.60;;;;;;;;;;5003877;28;20806;-54
2023/08/16 04:45:05;;;;;;;14.30;11.68;;;;;;;;;;5009057;28;20981;-55
2023/08/16 04:47:31;;;;;;;14.07;11.30;;;;;;;;;;5007517;28;20040;-54
2023/08/16 04:49:56;;;;;;;15.27;11.90;;;;;;;;;;5004506;28;20061;-54
2023/08/16 04:52:22;;;;;;;16.52;12.02;;;;;;;;;;5007298;28;20830;-55
2023/08/16 04:54:47;;;;;;;12.90;11.50;;;;;;;;;;5003236;28;20037;-54
2023/08/16 04:57:12;;;;;;;13.90;11.63;;;;;;;;;;5024828;28;20117;-54
2023/08/16 04:59:37;;;;;;;14.43;11.13;;;;;;;;;;5019826;28;20539;-54
2023/08/16 05:02:03;;;;;;;14.35;10.93;;;;;;;;;;5004860;28;20880;-54
2023/08/16 05:04:28;;;;;;;17.85;11.63;;;;;;;;;;4987357;28;20053;-53
2023/08/16 05:06:54;;;;;;;16.58;11.18;;;;;;;;;;5006402;28;20484;-53
2023/08/16 05:09:20;;;;;;;13.32;11.48;;;;;;;;;;5004119;28;20053;-55
2023/08/16 05:11:46;;;;;;;13.75;10.40;;;;;;;;;;5001102;28;20701;-54
2023/08/16 05:14:11;;;;;;;12.50;10.50;;;;;;;;;;5002741;28;20033;-54
2023/08/16 05:16:36;;;;;;;12.43;11.13;;;;;;;;;;5004515;28;20824;-53
2023/08/16 05:19:01;;;;;;;15.83;10.13;;;;;;;;;;5004114;28;20038;-54
2023/08/16 05:21:27;;;;;;;13.80;10.65;;;;;;;;;;5004116;28;20277;-55
2023/08/16 05:23:52;;;;;;;13.73;9.93;;;;;;;;;;5004155;28;20036;-54
2023/08/16 05:26:17;;;;;;;14.13;9.43;;;;;;;;;;5002236;28;20619;-53
2023/08/16 05:28:42;;;;;;;13.20;9.77;;;;;;;;;;4994240;28;20293;-54
2023/08/16 05:31:09;;;;;;;12.23;9.07;;;;;;;;;;5002043;28;20296;-53
2023/08/16 05:33:34;;;;;;;14.23;9.23;;;;;;;;;;5011859;28;20061;-53
2023/08/16 05:35:59;;;;;;;12.43;9.05;;;;;;;;;;5015301;28;20073;-53
2023/08/16 05:38:25;;;;;;;14.33;9.37;;;;;;;;;;5000933;28;20038;-54
2023/08/16 05:40:51;;;;;;;15.65;9.43;;;;;;;;;;4992422;28;20113;-54
2023/08/16 05:43:16;;;;;;;11.40;9.27;;;;;;;;;;5001572;28;20034;-54
2023/08/16 05:45:41;;;;;;;14.00;9.40;;;;;;;;;;4999319;28;20034;-55
2023/08/16 05:48:06;;;;;;;13.83;9.33;;;;;;;;;;5009228;28;20040;-54
2023/08/16 05:50:31;;;;;;;9.70;8.57;;;;;;;;;;5009261;28;20332;-54
2023/08/16 05:52:57;;;;;;;15.27;9.20;;;;;;;;;;4995083;28;20077;-54
2023/08/16 05:55:22;;;;;;;13.07;9.03;;;;;;;;;;4999041;28;20030;-54
2023/08/16 05:57:47;;;;;;;12.38;9.23;;;;;;;;;;4998978;28;20046;-53
2023/08/16 06:00:13;;;;;;;12.50;9.47;;;;;;;;;;5005409;28;20084;-53
2023/08/16 06:02:38;;;;;;;15.80;9.63;;;;;;;;;;4995289;28;21209;-55
2023/08/16 06:05:04;;;;;;;12.97;9.67;;;;;;;;;;4996179;28;20168;-54
2023/08/16 06:07:29;;;;;;;11.88;8.75;;;;;;;;;;4997206;28;20347;-54
2023/08/16 06:09:55;;;;;;;11.63;9.15;;;;;;;;;;4975413;28;20038;-54
2023/08/16 06:12:20;;;;;;;11.27;8.73;;;;;;;;;;4990977;28;20116;-54
2023/08/16 06:14:45;;;;;;;12.63;8.80;;;;;;;;;;4995055;28;20293;-55
2023/08/16 06:17:11;;;;;;;17.27;9.83;;;;;;;;;;4976665;28;20289;-55
2023/08/16 06:19:36;;;;;;;14.40;9.65;;;;;;;;;;4981344;28;20288;-55
2023/08/16 06:22:02;;;;;;;16.40;9.70;;;;;;;;;;4989551;28;20416;-55
2023/08/16 06:24:31;;;;;;;15.00;9.20;;;;;;;;;;4989246;28;20434;-54
2023/08/16 06:26:56;;;;;;;12.23;8.70;;;;;;;;;;4991622;28;20042;-54
2023/08/16 06:29:21;;;;;;;12.37;8.93;;;;;;;;;;4991761;28;20415;-55
2023/08/16 06:31:48;;;;;;;16.57;8.97;;;;;;;;;;4992020;28;20500;-54
2023/08/16 06:34:13;;;;;;;13.00;9.35;;;;;;;;;;4994107;28;20308;-54
2023/08/16 06:36:38;;;;;;;10.85;9.10;;;;;;;;;;4993993;28;20026;-54
2023/08/16 06:39:04;;;;;;;12.40;9.00;;;;;;;;;;4987591;28;20048;-54
2023/08/16 06:41:29;;;;;;;13.73;9.35;;;;;;;;;;4993133;28;20313;-53
2023/08/16 06:43:54;;;;;;;11.90;9.03;;;;;;;;;;4971273;28;20045;-55
2023/08/16 06:46:19;;;;;;;13.13;9.37;;;;;;;;;;4992433;28;20714;-54
2023/08/16 06:48:47;;;;;;;11.45;9.15;;;;;;;;;;4993306;28;20550;-54
2023/08/16 06:51:12;;;;;;;14.30;9.80;;;;;;;;;;4999647;28;20728;-54
2023/08/16 06:53:39;;;;;;;12.27;9.73;;;;;;;;;;4995402;28;20036;-54
2023/08/16 06:56:04;;;;;;;14.98;9.80;;;;;;;;;;4994499;28;20367;-54
2023/08/16 06:58:29;;;;;;;14.20;9.18;;;;;;;;;;4994303;28;20160;-55
2023/08/16 07:00:55;;;;;;;11.80;9.23;;;;;;;;;;4994609;28;20034;-55
2023/08/16 07:03:20;;;;;;;14.52;9.18;;;;;;;;;;4990877;28;20399;-53
2023/08/16 07:05:45;;;;;;;10.63;8.75;;;;;;;;;;4997744;28;20519;-55
2023/08/16 07:08:11;;;;;;;13.43;9.18;;;;;;;;;;4997166;28;20034;-54
2023/08/16 07:10:36;;;;;;;14.75;8.57;;;;;;;;;;4997893;28;20045;-53
2023/08/16 07:13:02;;;;;;;11.37;9.03;;;;;;;;;;5001472;28;20042;-54
2023/08/16 07:15:27;;;;;;;11.80;8.88;;;;;;;;;;4995704;28;20439;-53
2023/08/16 07:17:53;;;;;;;17.20;8.68;;;;;;;;;;4997249;28;20516;-53
2023/08/16 07:20:18;;;;;;;13.43;8.37;;;;;;;;;;4993579;28;20120;-54
2023/08/16 07:22:43;;;;;;;12.20;8.57;;;;;;;;;;4996345;28;20129;-53
2023/08/16 07:25:10;;;;;;;15.10;9.00;;;;;;;;;;4994982;28;20038;-55
2023/08/16 07:27:35;;;;;;;13.57;8.40;;;;;;;;;;4995224;28;20297;-53
2023/08/16 07:30:01;;;;;;;11.00;7.97;;;;;;;;;;4996363;28;20047;-54
2023/08/16 07:32:26;;;;;;;10.73;8.10;;;;;;;;;;4992041;28;20058;-54
2023/08/16 07:34:52;;;;;;;11.63;8.15;;;;;;;;;;4993149;28;20627;-55
2023/08/16 07:37:17;;;;;;;10.43;7.80;;;;;;;;;;4994090;28;20449;-53
2023/08/16 07:39:42;;;;;;;14.27;8.77;;;;;;;;;;4994142;28;20273;-52
2023/08/16 07:42:08;;;;;;;10.90;7.93;;;;;;;;;;4994943;28;20085;-54
2023/08/16 07:44:34;;;;;;;11.65;8.23;;;;;;;;;;4994059;28;20036;-53
2023/08/16 07:47:00;;;;;;;13.50;8.68;;;;;;;;;;4996524;28;20437;-53
2023/08/16 07:49:25;;;;;;;12.20;7.80;;;;;;;;;;4993430;28;20030;-54
2023/08/16 07:51:50;;;;;;;11.30;7.67;;;;;;;;;;4994265;28;20057;-54
2023/08/16 07:54:16;;;;;;;11.97;7.77;;;;;;;;;;4992666;28;20299;-54
2023/08/16 07:56:41;;;;;;;12.60;7.93;;;;;;;;;;5014902;28;20328;-55
2023/08/16 07:59:06;;;;;;;10.57;7.20;;;;;;;;;;5011583;28;20057;-53
2023/08/16 08:01:32;;;;;;;9.68;7.35;;;;;;;;;;4992835;28;20018;-54
2023/08/16 08:03:57;;;;;;;9.57;7.15;;;;;;;;;;4996490;28;20420;-53
2023/08/16 08:06:22;;;;;;;10.27;7.18;;;;;;;;;;4992873;28;20049;-53
2023/08/16 08:08:48;;;;;;;10.60;6.97;;;;;;;;;;4991689;28;20050;-53
2023/08/16 08:11:14;;;;;;;9.63;7.00;;;;;;;;;;4990976;28;20018;-55
2023/08/16 08:13:39;;;;;;;10.43;6.82;;;;;;;;;;4992776;28;20280;-55
2023/08/16 08:16:04;;;;;;;8.17;6.27;;;;;;;;;;4982013;28;20037;-54
2023/08/16 08:18:30;;;;;;;10.90;7.37;;;;;;;;;;4990306;28;20041;-54
2023/08/16 08:20:55;;;;;;;9.13;6.70;;;;;;;;;;4991288;28;20399;-54
2023/08/16 08:23:21;;;;;;;11.73;7.50;;;;;;;;;;5004807;28;20847;-54
2023/08/16 08:25:46;;;;;;;9.88;6.93;;;;;;;;;;5003377;28;20694;-53
2023/08/16 08:28:12;;;;;;;9.32;6.53;;;;;;;;;;5004576;28;20104;-53
2023/08/16 08:30:37;;;;;;;9.33;7.47;;;;;;;;;;5006031;28;20044;-53
2023/08/16 08:33:03;;;;;;;11.50;6.88;;;;;;;;;;5003838;28;20297;-54
2023/08/16 08:35:28;;;;;;;9.45;6.55;;;;;;;;;;5005309;28;20028;-55
2023/08/16 08:37:53;;;;;;;7.70;6.60;;;;;;;;;;5006998;28;20022;-53
2023/08/16 08:40:18;;;;;;;12.50;7.17;;;;;;;;;;5007422;28;20336;-54
2023/08/16 08:42:46;;;;;;;9.60;6.90;;;;;;;;;;5005471;28;20105;-54
2023/08/16 08:45:12;;;;;;;9.45;6.90;;;;;;;;;;4988352;28;20042;-54
2023/08/16 08:47:38;;;;;;;10.43;7.10;;;;;;;;;;5017748;28;20028;-54
2023/08/16 08:50:04;;;;;;;10.43;7.03;;;;;;;;;;4994659;28;20030;-54
2023/08/16 08:52:29;;;;;;;9.70;6.97;;;;;;;;;;4991912;28;20415;-54
2023/08/16 08:54:55;;;;;;;11.82;6.90;;;;;;;;;;4992148;28;20010;-53
2023/08/16 08:57:20;;;;;;;10.50;7.23;;;;;;;;;;4988022;28;20780;-52
2023/08/16 08:59:49;;;;;;;10.30;6.80;;;;;;;;;;5009912;28;20292;-53
2023/08/16 09:02:14;;;;;;;9.57;6.90;;;;;;;;;;4984397;28;20292;-54
2023/08/16 09:04:39;;;;;;;10.32;7.03;;;;;;;;;;4989091;28;20021;-53
2023/08/16 09:07:05;;;;;;;10.03;7.37;;;;;;;;;;4990756;28;20053;-54
2023/08/16 09:09:30;;;;;;;10.00;7.00;;;;;;;;;;4987915;28;21509;-55
2023/08/16 09:11:55;;;;;;;11.37;7.73;;;;;;;;;;4990121;28;20072;-56
2023/08/16 09:14:21;;;;;;;11.07;6.90;;;;;;;;;;4989234;28;20044;-55
2023/08/16 09:16:46;;;;;;;9.13;7.10;;;;;;;;;;4987980;28;20464;-55
2023/08/16 09:19:12;;;;;;;10.07;6.93;;;;;;;;;;4989565;28;20378;-55
2023/08/16 09:21:38;;;;;;;10.27;6.75;;;;;;;;;;4990291;28;20121;-55
2023/08/16 09:24:05;;;;;;;10.38;7.10;;;;;;;;;;4988470;28;20302;-56
2023/08/16 09:26:31;;;;;;;10.75;7.47;;;;;;;;;;4994399;28;20041;-56
2023/08/16 09:28:57;;;;;;;10.43;7.55;;;;;;;;;;5010226;28;20042;-55
2023/08/16 09:31:22;;;;;;;11.77;7.45;;;;;;;;;;5010118;28;20044;-55
2023/08/16 09:33:52;;;;;;;12.20;7.00;;;;;;;;;;5006861;28;20034;-54
2023/08/16 09:36:17;;;;;;;10.52;7.40;;;;;;;;;;4989205;28;20034;-55
2023/08/16 09:38:44;;;;;;;11.20;7.10;;;;;;;;;;4987842;28;20098;-54
2023/08/16 09:41:18;;;;;;;9.75;7.35;;;;;;;;;;4989321;28;20030;-54
2023/08/16 09:43:43;;;;;;;10.55;7.20;;;;;;;;;;4989524;28;20136;-54
2023/08/16 09:46:09;;;;;;;10.47;7.17;;;;;;;;;;4988048;28;20443;-54
2023/08/16 09:48:35;;;;;;;9.38;7.25;;;;;;;;;;4994760;28;20676;-53
2023/08/16 09:51:03;;;;;;;10.33;7.30;;;;;;;;;;5008978;28;20037;-56
2023/08/16 09:53:32;;;;;;;12.20;7.65;;;;;;;;;;5009373;28;20128;-57
2023/08/16 09:55:58;;;;;;;9.07;7.18;;;;;;;;;;5006230;28;20038;-55
2023/08/16 09:58:24;;;;;;;9.98;6.85;;;;;;;;;;5006635;28;20124;-55
2023/08/16 10:00:49;;;;;;;10.35;6.93;;;;;;;;;;5009261;28;20121;-55
2023/08/16 10:03:14;;;;;;;9.77;7.28;;;;;;;;;;5011385;28;20264;-55
2023/08/16 10:05:40;;;;;;;9.95;7.03;;;;;;;;;;5010984;28;22107;-55
2023/08/16 10:08:05;;;;;;;8.75;6.60;;;;;;;;;;5000791;28;20122;-55
2023/08/16 10:10:30;;;;;;;8.75;7.03;;;;;;;;;;4989339;28;20473;-55
2023/08/16 10:12:56;;;;;;;9.65;7.03;;;;;;;;;;4985084;28;20053;-54
2023/08/16 10:15:21;;;;;;;9.97;7.10;;;;;;;;;;4990542;28;20038;-53
2023/08/16 10:17:46;;;;;;;9.15;6.75;;;;;;;;;;4990399;28;20042;-54
2023/08/16 10:20:25;;;;;;;9.83;7.10;;;;;;;;;;4979900;28;20088;-53
2023/08/16 10:23:00;;;;;;;8.98;6.57;;;;;;;;;;4988465;28;20042;-55
2023/08/16 10:25:27;;;;;;;10.55;6.50;;;;;;;;;;4991792;28;20046;-55
2023/08/16 10:27:54;;;;;;;9.05;6.40;;;;;;;;;;4990516;28;20121;-54
2023/08/16 10:30:20;;;;;;;8.80;6.65;;;;;;;;;;4987820;28;20038;-54
2023/08/16 10:32:45;;;;;;;9.93;6.60;;;;;;;;;;4971063;28;20061;-54
2023/08/16 10:35:10;;;;;;;9.60;5.75;;;;;;;;;;4989333;28;20056;-54
2023/08/16 10:37:36;;;;;;;9.13;6.37;;;;;;;;;;4973617;28;20121;-54
2023/08/16 10:40:01;;;;;;;7.47;6.13;;;;;;;;;;4992006;28;20826;-54
2023/08/16 10:42:26;;;;;;;10.47;6.53;;;;;;;;;;4996015;28;20054;-53
2023/08/16 10:44:52;;;;;;;7.68;5.63;;;;;;;;;;4995364;28;20292;-53
2023/08/16 10:47:29;;;;;;;7.90;6.10;;;;;;;;;;4995054;28;20081;-54
2023/08/16 10:49:55;;;;;;;11.07;5.97;;;;;;;;;;4996082;28;21504;-54
2023/08/16 10:52:27;;;;;;;7.30;5.57;;;;;;;;;;4991674;28;20904;-53
2023/08/16 10:54:52;;;;;;;9.43;6.03;;;;;;;;;;5011020;28;20295;-52
2023/08/16 10:57:22;;;;;;;10.53;5.97;;;;;;;;;;5012526;28;20033;-53
2023/08/16 10:59:48;;;;;;;;;;;;;;;;;;4999330;28;20034;-53
2023/08/16 11:02:17;;;;;;;9.75;6.32;;;;;;;;;;4993152;28;20519;-53
2023/08/16 11:04:43;;;;;;;8.32;6.53;;;;;;;;;;4994456;28;20037;-55
2023/08/16 11:07:09;;;;;;;8.95;6.45;;;;;;;;;;4993896;28;20035;-53
2023/08/16 11:09:35;;;;;;;8.63;6.05;;;;;;;;;;4993593;28;20026;-53
2023/08/16 11:12:02;;;;;;;7.22;5.90;;;;;;;;;;4993918;28;20058;-54
2023/08/16 11:14:27;;;;;;;8.80;6.10;;;;;;;;;;4990684;28;20058;-53
2023/08/16 11:16:55;;;;;;;8.57;6.07;;;;;;;;;;4994274;28;20072;-53
2023/08/16 11:19:21;;;;;;;8.45;6.43;;;;;;;;;;4992656;28;20052;-54
2023/08/16 11:21:47;;;;;;;10.68;6.22;;;;;;;;;;4990705;28;20075;-53
2023/08/16 11:24:12;;;;;;;9.15;6.45;;;;;;;;;;4991699;28;20044;-53
2023/08/16 11:26:38;;;;;;;9.20;6.63;;;;;;;;;;4990870;28;20038;-54
2023/08/16 11:29:03;;;;;;;10.25;6.90;;;;;;;;;;4990524;28;20045;-54
2023/08/16 11:31:29;;;;;;;9.85;6.57;;;;;;;;;;4994343;28;20048;-55
2023/08/16 11:33:54;;;;;;;8.50;6.70;;;;;;;;;;4989901;28;20156;-56
2023/08/16 11:36:19;;;;;;;11.75;6.82;;;;;;;;;;4991530;28;20049;-57
2023/08/16 11:38:47;;;;;;;9.85;7.25;;;;;;;;;;4973405;28;20044;-54
2023/08/16 11:41:18;;;;;;;9.70;7.03;;;;;;;;;;4973419;28;20348;-54
2023/08/16 11:43:43;;;;;;;8.90;6.90;;;;;;;;;;4992496;28;20227;-54
2023/08/16 11:46:08;;;;;;;9.87;7.20;;;;;;;;;;4990020;28;20396;-54
2023/08/16 11:48:34;;;;;;;8.45;7.03;;;;;;;;;;4974669;28;20073;-54
2023/08/16 11:50:59;;;;;;;10.90;7.38;;;;;;;;;;4992841;28;20046;-54
2023/08/16 11:53:34;;;;;;;10.70;7.38;;;;;;;;;;4991350;28;20060;-54
2023/08/16 11:56:00;;;;;;;11.20;7.93;;;;;;;;;;5011830;28;20038;-53
2023/08/16 11:58:25;;;;;;;12.23;7.40;;;;;;;;;;5012530;28;20020;-54
2023/08/16 12:00:51;;;;;;;10.82;7.47;;;;;;;;;;5010470;28;20464;-54
2023/08/16 12:03:17;;;;;;;9.95;7.05;;;;;;;;;;4991785;28;20036;-54
2023/08/16 12:05:42;;;;;;;11.10;7.38;;;;;;;;;;4991175;28;20025;-55
2023/08/16 12:08:08;;;;;;;8.70;7.10;;;;;;;;;;5002835;28;20546;-54
2023/08/16 12:10:33;;;;;;;8.38;7.47;;;;;;;;;;5005812;28;20037;-52
2023/08/16 12:12:59;;;;;;;9.68;6.80;;;;;;;;;;5006197;28;20455;-53
2023/08/16 12:15:25;;;;;;;8.60;7.43;;;;;;;;;;5026094;28;20427;-54
2023/08/16 12:17:55;;;;;;;9.55;7.93;;;;;;;;;;5010755;28;20165;-53
2023/08/16 12:20:20;;;;;;;9.02;7.18;;;;;;;;;;5014576;28;20020;-53
2023/08/16 12:22:45;;;;;;;9.15;7.03;;;;;;;;;;5016100;28;20676;-53
2023/08/16 12:25:11;;;;;;;10.67;8.00;;;;;;;;;;5018033;28;20053;-54
2023/08/16 12:27:36;;;;;;;7.85;7.05;;;;;;;;;;5014304;28;20025;-55
2023/08/16 12:30:01;;;;;;;8.60;7.33;;;;;;;;;;5005558;28;20067;-55
2023/08/16 12:32:27;;;;;;;8.77;7.28;;;;;;;;;;5011161;28;20299;-54
2023/08/16 12:34:52;;;;;;;9.73;7.30;;;;;;;;;;5017062;28;20454;-54
2023/08/16 12:37:17;;;;;;;10.40;7.40;;;;;;;;;;5012054;28;20688;-54
2023/08/16 12:39:43;;;;;;;10.23;7.40;;;;;;;;;;4993802;28;21222;-54
2023/08/16 12:42:09;;;;;;;10.23;7.38;;;;;;;;;;4978772;28;20594;-56
2023/08/16 12:44:34;;;;;;;10.00;7.78;;;;;;;;;;4998523;28;20022;-55
2023/08/16 12:46:59;;;;;;;10.57;7.90;;;;;;;;;;4993711;28;20099;-54
2023/08/16 12:49:24;;;;;;;9.33;7.53;;;;;;;;;;4996652;28;20025;-55
2023/08/16 12:51:49;;;;;;;9.27;7.43;;;;;;;;;;5005470;28;20112;-55
2023/08/16 12:54:15;;;;;;;11.63;7.77;;;;;;;;;;5005055;28;20025;-54
2023/08/16 12:56:40;;;;;;;10.13;7.80;;;;;;;;;;5004939;28;20088;-54
2023/08/16 12:59:05;;;;;;;10.97;8.10;;;;;;;;;;5009036;28;20048;-54
2023/08/16 13:01:30;;;;;;;11.20;7.87;;;;;;;;;;5013472;28;20277;-55
2023/08/16 13:03:57;;;;;;;7.72;7.00;;;;;;;;;;5004857;28;20391;-55
2023/08/16 13:06:23;;;;;;;9.00;7.95;;;;;;;;;;5004632;28;20558;-55
2023/08/16 13:08:48;;;;;;;11.55;7.70;;;;;;;;;;5004616;28;20025;-55
2023/08/16 13:11:13;;;;;;;13.70;8.40;;;;;;;;;;5008048;28;20541;-57
2023/08/16 13:13:39;;;;;;;9.67;8.03;;;;;;;;;;5024952;28;20515;-56
2023/08/16 13:16:04;;;;;;;11.82;8.02;;;;;;;;;;5024210;28;20326;-57
2023/08/16 13:18:29;;;;;;;12.82;7.82;;;;;;;;;;5006117;28;20478;-57
2023/08/16 13:20:56;;;;;;;9.20;8.20;;;;;;;;;;5024563;28;20036;-57
2023/08/16 13:23:21;;;;;;;9.65;7.75;;;;;;;;;;5025021;28;20057;-56
2023/08/16 13:25:46;;;;;;;11.80;8.10;;;;;;;;;;5024077;28;20075;-56
2023/08/16 13:28:11;;;;;;;11.55;7.65;;;;;;;;;;5030730;28;20801;-56
2023/08/16 13:30:38;;;;;;;9.88;7.38;;;;;;;;;;5024321;28;20055;-56
2023/08/16 13:33:04;;;;;;;9.48;7.70;;;;;;;;;;5023414;28;20033;-57
2023/08/16 13:35:29;;;;;;;11.60;7.40;;;;;;;;;;5024851;28;20030;-57
2023/08/16 13:37:54;;;;;;;10.87;8.20;;;;;;;;;;5023056;28;20034;-57
2023/08/16 13:40:19;;;;;;;9.77;8.17;;;;;;;;;;5024168;28;20061;-58
2023/08/16 13:42:45;;;;;;;10.17;7.70;;;;;;;;;;5024222;28;20845;-57
2023/08/16 13:45:10;;;;;;;10.30;7.47;;;;;;;;;;5024386;28;20893;-56
2023/08/16 13:47:35;;;;;;;10.43;8.10;;;;;;;;;;5023850;28;20087;-56
2023/08/16 13:50:00;;;;;;;12.30;7.93;;;;;;;;;;5020528;28;20288;-57
2023/08/16 13:52:26;;;;;;;10.27;8.20;;;;;;;;;;5037761;28;20052;-57
2023/08/16 13:54:51;;;;;;;10.10;7.43;;;;;;;;;;5023967;28;20095;-56
2023/08/16 13:57:16;;;;;;;10.00;7.33;;;;;;;;;;5023743;28;20288;-57
2023/08/16 13:59:44;;;;;;;8.73;7.50;;;;;;;;;;5023137;28;20080;-57
2023/08/16 14:02:09;;;;;;;11.90;8.05;;;;;;;;;;5024315;28;20612;-57
2023/08/16 14:04:35;;;;;;;9.83;7.50;;;;;;;;;;5023956;28;20033;-56
2023/08/16 14:07:00;;;;;;;12.70;7.80;;;;;;;;;;5024044;28;20156;-56
2023/08/16 14:09:25;;;;;;;8.97;7.33;;;;;;;;;;5006338;28;20515;-57
2023/08/16 14:11:50;;;;;;;10.87;7.93;;;;;;;;;;5022941;28;20326;-58
2023/08/16 14:14:16;;;;;;;9.13;7.35;;;;;;;;;;5021472;28;20441;-58
2023/08/16 14:16:42;;;;;;;9.70;8.00;;;;;;;;;;5031043;28;20117;-57
2023/08/16 14:19:07;;;;;;;8.25;7.22;;;;;;;;;;5024512;28;20133;-57